createdAt,value
2023-01-18T00:00:35.293Z,4.93
2023-01-18T00:03:02.559Z,4.78
2023-01-18T00:05:30.271Z,5.15
2023-01-18T00:07:57.487Z,3.58
2023-01-18T00:10:24.695Z,3.33
2023-01-18T00:12:51.858Z,7.13
2023-01-18T00:15:19.319Z,4.22
2023-01-18T00:17:51.705Z,5.63
2023-01-18T00:20:24.039Z,6.20
2023-01-18T00:22:51.509Z,3.33
2023-01-18T00:25:19.908Z,3.72
2023-01-18T00:27:48.582Z,5.47
2023-01-18T00:30:23.120Z,3.97
2023-01-18T00:32:53.623Z,3.60
2023-01-18T00:35:22.257Z,4.32
2023-01-18T00:37:50.159Z,5.97
2023-01-18T00:40:18.157Z,4.30
2023-01-18T00:43:03.747Z,4.32
2023-01-18T00:45:30.964Z,3.58
2023-01-18T00:47:58.331Z,5.10
2023-01-18T00:50:25.713Z,5.20
2023-01-18T00:52:56.929Z,4.90
2023-01-18T00:55:24.482Z,4.57
2023-01-18T00:57:51.739Z,6.43
2023-01-18T01:00:19.023Z,4.50
2023-01-18T01:02:46.307Z,5.93
2023-01-18T01:05:36.906Z,5.13
2023-01-18T01:08:04.690Z,5.32
2023-01-18T01:10:33.151Z,5.57
2023-01-18T01:13:18.856Z,6.95
2023-01-18T01:16:04.727Z,5.50
2023-01-18T01:18:50.324Z,6.25
2023-01-18T01:21:35.838Z,7.50
2023-01-18T01:24:21.598Z,4.72
2023-01-18T01:26:48.783Z,5.30
2023-01-18T01:29:16.443Z,5.47
2023-01-18T01:31:43.707Z,6.90
2023-01-18T01:34:10.921Z,6.10
2023-01-18T01:36:38.168Z,4.97
2023-01-18T01:39:07.034Z,5.07
2023-01-18T01:41:34.696Z,4.45
2023-01-18T01:44:04.653Z,6.78
2023-01-18T01:46:54.485Z,5.32
2023-01-18T01:49:42.393Z,5.18
2023-01-18T01:52:11.260Z,5.72
2023-01-18T01:55:04.627Z,4.22
2023-01-18T01:57:43.430Z,5.15
2023-01-18T02:00:14.917Z,4.88
2023-01-18T02:02:43.477Z,6.13
2023-01-18T02:05:12.198Z,5.07
2023-01-18T02:07:39.454Z,4.70
2023-01-18T02:10:07.668Z,8.85
2023-01-18T02:12:35.421Z,3.42
2023-01-18T02:15:02.668Z,4.78
2023-01-18T02:17:36.911Z,3.83
2023-01-18T02:20:24.212Z,4.25
2023-01-18T02:23:15.577Z,2.60
2023-01-18T02:25:57.832Z,3.88
2023-01-18T02:28:32.915Z,5.90
2023-01-18T02:31:08.969Z,2.80
2023-01-18T02:33:47.053Z,3.17
2023-01-18T02:36:23.145Z,5.68
2023-01-18T02:38:50.339Z,3.55
2023-01-18T02:41:59.254Z,2.92
2023-01-18T02:44:58.285Z,3.00
2023-01-18T02:47:25.495Z,5.35
2023-01-18T02:49:52.676Z,3.22
2023-01-18T02:52:40.239Z,3.90
2023-01-18T02:55:38.504Z,4.22
2023-01-18T02:58:09.738Z,3.38
2023-01-18T03:00:37.923Z,2.53
2023-01-18T03:03:06.129Z,3.45
2023-01-18T03:05:34.388Z,2.40
2023-01-18T03:08:09.956Z,2.47
2023-01-18T03:10:42.540Z,2.90
2023-01-18T03:13:15.211Z,3.13
2023-01-18T03:15:45.219Z,3.40
2023-01-18T03:18:13.998Z,4.00
2023-01-18T03:20:43.044Z,4.93
2023-01-18T03:23:38.802Z,2.33
2023-01-18T03:26:10.805Z,2.17
2023-01-18T03:29:03.988Z,2.50
2023-01-18T03:32:07.086Z,3.90
2023-01-18T03:34:40.418Z,2.30
2023-01-18T03:37:10.459Z,2.20
2023-01-18T03:39:46.649Z,2.85
2023-01-18T03:42:23.243Z,2.00
2023-01-18T03:45:07.627Z,2.72
2023-01-18T03:47:34.821Z,2.97
2023-01-18T03:50:02.051Z,2.13
2023-01-18T03:52:45.060Z,1.95
2023-01-18T03:55:24.336Z,2.83
2023-01-18T03:57:55.984Z,2.15
2023-01-18T04:00:23.233Z,2.72
2023-01-18T04:02:50.514Z,4.68
2023-01-18T04:05:17.999Z,2.15
2023-01-18T04:07:45.183Z,2.63
2023-01-18T04:10:12.374Z,4.57
2023-01-18T04:12:39.586Z,2.47
2023-01-18T04:15:07.259Z,3.70
2023-01-18T04:17:34.443Z,2.45
2023-01-18T04:20:01.707Z,2.13
2023-01-18T04:22:28.891Z,2.00
2023-01-18T04:24:56.091Z,2.20
2023-01-18T04:27:25.024Z,3.70
2023-01-18T04:29:52.355Z,2.47
2023-01-18T04:32:19.556Z,2.00
2023-01-18T04:34:46.775Z,1.83
2023-01-18T04:37:13.986Z,7.18
2023-01-18T04:39:41.164Z,4.43
2023-01-18T04:42:08.438Z,5.13
2023-01-18T04:44:35.613Z,2.92
2023-01-18T04:47:03.158Z,2.45
2023-01-18T04:49:30.359Z,2.95
2023-01-18T04:51:57.583Z,3.25
2023-01-18T04:54:25.292Z,2.92
2023-01-18T04:56:52.499Z,2.90
2023-01-18T04:59:19.810Z,6.70
2023-01-18T05:01:47.058Z,15.73
2023-01-18T05:04:14.746Z,8.40
2023-01-18T05:06:41.924Z,6.22
2023-01-18T05:09:11.519Z,3.08
2023-01-18T05:11:38.740Z,2.60
2023-01-18T05:14:05.921Z,4.38
2023-01-18T05:16:33.228Z,2.83
2023-01-18T05:19:00.488Z,2.33
2023-01-18T05:21:28.589Z,3.45
2023-01-18T05:23:55.757Z,2.38
2023-01-18T05:26:23.560Z,4.32
2023-01-18T05:28:50.863Z,4.10
2023-01-18T05:31:20.984Z,2.63
2023-01-18T05:33:48.375Z,4.15
2023-01-18T05:36:15.683Z,3.22
2023-01-18T05:38:42.969Z,3.10
2023-01-18T05:41:10.169Z,3.30
2023-01-18T05:43:39.061Z,3.95
2023-01-18T05:46:06.452Z,3.30
2023-01-18T05:48:33.788Z,3.65
2023-01-18T05:51:00.975Z,3.72
2023-01-18T05:53:28.172Z,3.85
2023-01-18T05:55:59.854Z,2.95
2023-01-18T05:58:27.413Z,2.88
2023-01-18T06:00:54.842Z,4.18
2023-01-18T06:03:22.360Z,2.63
2023-01-18T06:05:51.295Z,3.30
2023-01-18T06:08:18.573Z,4.95
2023-01-18T06:10:55.232Z,3.97
2023-01-18T06:13:23.091Z,2.67
2023-01-18T06:15:51.794Z,3.90
2023-01-18T06:18:19.079Z,4.53
2023-01-18T06:20:46.270Z,3.80
2023-01-18T06:23:13.478Z,2.42
2023-01-18T06:25:40.651Z,3.28
2023-01-18T06:28:07.838Z,4.50
2023-01-18T06:30:35.021Z,6.32
2023-01-18T06:33:06.689Z,5.85
2023-01-18T06:35:34.451Z,5.82
2023-01-18T06:38:02.295Z,4.30
2023-01-18T06:40:29.613Z,7.00
2023-01-18T06:42:57.296Z,3.25
2023-01-18T06:45:25.844Z,5.55
2023-01-18T06:47:53.225Z,7.35
2023-01-18T06:50:20.455Z,5.07
2023-01-18T06:52:47.836Z,3.55
2023-01-18T06:55:15.415Z,7.55
2023-01-18T06:57:42.644Z,4.38
2023-01-18T07:00:11.142Z,4.15
2023-01-18T07:02:38.381Z,5.18
2023-01-18T07:05:05.841Z,5.32
2023-01-18T07:07:33.126Z,4.75
2023-01-18T07:10:00.319Z,5.05
2023-01-18T07:12:27.571Z,4.68
2023-01-18T07:14:54.794Z,4.15
2023-01-18T07:17:21.952Z,4.43
2023-01-18T07:19:49.150Z,2.70
2023-01-18T07:22:16.360Z,2.78
2023-01-18T07:24:43.552Z,4.60
2023-01-18T07:27:10.783Z,3.10
2023-01-18T07:29:38.013Z,2.72
2023-01-18T07:32:05.325Z,6.07
2023-01-18T07:34:32.673Z,3.38
2023-01-18T07:37:01.379Z,2.30
2023-01-18T07:39:28.554Z,4.95
2023-01-18T07:41:55.727Z,2.35
2023-01-18T07:44:24.018Z,1.98
2023-01-18T07:46:51.200Z,2.55
2023-01-18T07:49:18.388Z,2.15
2023-01-18T07:51:45.562Z,6.07
2023-01-18T07:54:12.978Z,2.67
2023-01-18T07:56:40.204Z,2.40
2023-01-18T07:59:07.482Z,1.90
2023-01-18T08:01:34.755Z,4.35
2023-01-18T08:04:02.040Z,3.22
2023-01-18T08:06:29.292Z,5.65
2023-01-18T08:08:56.920Z,3.58
2023-01-18T08:11:24.349Z,3.90
2023-01-18T08:13:52.799Z,5.93
2023-01-18T08:16:20.170Z,4.28
2023-01-18T08:18:50.613Z,1.92
2023-01-18T08:21:17.878Z,3.20
2023-01-18T08:23:45.067Z,5.10
2023-01-18T08:26:13.673Z,7.55
2023-01-18T08:28:41.544Z,2.90
2023-01-18T08:31:14.564Z,4.63
2023-01-18T08:33:45.276Z,3.90
2023-01-18T08:36:14.284Z,1.75
2023-01-18T08:38:41.482Z,2.13
2023-01-18T08:41:08.710Z,6.50
2023-01-18T08:43:36.049Z,4.60
2023-01-18T08:46:03.367Z,2.28
2023-01-18T08:48:30.662Z,6.47
2023-01-18T08:51:02.173Z,4.07
2023-01-18T08:53:30.171Z,7.22
2023-01-18T08:55:57.474Z,8.43
2023-01-18T08:58:24.738Z,4.90
2023-01-18T09:00:53.364Z,4.70
2023-01-18T09:03:21.513Z,4.03
2023-01-18T09:05:49.301Z,11.80
2023-01-18T09:08:17.534Z,3.58
2023-01-18T09:10:44.947Z,4.13
2023-01-18T09:13:12.282Z,5.43
2023-01-18T09:15:39.563Z,3.80
2023-01-18T09:18:08.050Z,2.45
2023-01-18T09:20:36.163Z,3.10
2023-01-18T09:23:07.304Z,3.40
2023-01-18T09:25:36.374Z,5.18
2023-01-18T09:28:04.318Z,7.43
2023-01-18T09:30:31.557Z,4.30
2023-01-18T09:32:59.191Z,1.90
2023-01-18T09:35:26.795Z,2.08
2023-01-18T09:37:54.915Z,4.63
2023-01-18T09:40:23.088Z,4.22
2023-01-18T09:42:51.309Z,2.70
2023-01-18T09:45:32.449Z,5.35
2023-01-18T09:48:02.837Z,5.00
2023-01-18T09:50:30.040Z,1.88
2023-01-18T09:53:04.116Z,7.30
2023-01-18T09:56:20.713Z,3.13
2023-01-18T09:58:54.564Z,6.35
2023-01-18T10:01:23.567Z,2.55
2023-01-18T10:03:55.552Z,3.10
2023-01-18T10:06:47.711Z,4.22
2023-01-18T10:09:19.619Z,3.95
2023-01-18T10:11:55.339Z,3.88
2023-01-18T10:14:41.175Z,2.58
2023-01-18T10:17:20.620Z,4.07
2023-01-18T10:19:48.252Z,2.10
2023-01-18T10:22:25.593Z,3.38
2023-01-18T10:24:57.506Z,9.38
2023-01-18T10:27:49.030Z,2.38
2023-01-18T10:30:31.384Z,2.10
2023-01-18T10:33:00.613Z,5.20
2023-01-18T10:35:30.272Z,1.90
2023-01-18T10:38:01.053Z,2.70
2023-01-18T10:40:28.396Z,4.47
2023-01-18T10:42:59.574Z,7.05
2023-01-18T10:45:29.778Z,2.30
2023-01-18T10:47:58.419Z,3.47
2023-01-18T10:50:36.752Z,2.60
2023-01-18T10:53:21.863Z,1.63
2023-01-18T10:56:10.185Z,1.90
2023-01-18T10:58:50.246Z,1.70
2023-01-18T11:01:24.947Z,2.17
2023-01-18T11:03:52.843Z,2.25
2023-01-18T11:06:22.675Z,2.75
2023-01-18T11:08:50.060Z,4.22
2023-01-18T11:11:19.644Z,1.77
2023-01-18T11:13:48.328Z,2.53
2023-01-18T11:16:22.561Z,1.67
2023-01-18T11:18:56.538Z,2.28
2023-01-18T11:21:24.406Z,1.52
2023-01-18T11:23:51.909Z,2.30
2023-01-18T11:26:20.191Z,2.00
2023-01-18T11:29:02.836Z,2.45
2023-01-18T11:31:32.111Z,7.38
2023-01-18T11:34:03.815Z,3.83
2023-01-18T11:36:43.724Z,4.45
2023-01-18T11:39:24.740Z,2.70
2023-01-18T11:41:52.282Z,5.03
2023-01-18T11:44:27.218Z,9.50
2023-01-18T11:46:55.560Z,4.78
2023-01-18T11:49:45.137Z,5.13
2023-01-18T11:52:34.491Z,4.03
2023-01-18T11:55:03.401Z,5.30
2023-01-18T11:57:30.869Z,2.80
2023-01-18T11:59:58.928Z,9.82
2023-01-18T12:02:32.052Z,3.05
2023-01-18T12:05:02.109Z,3.83
2023-01-18T12:07:45.982Z,3.08
2023-01-18T12:10:20.032Z,3.28
2023-01-18T12:13:03.709Z,1.90
2023-01-18T12:16:08.270Z,2.25
2023-01-18T12:18:53.714Z,4.32
2023-01-18T12:21:45.853Z,4.10
2023-01-18T12:24:25.044Z,2.45
2023-01-18T12:27:04.854Z,2.58
2023-01-18T12:29:39.496Z,4.13
2023-01-18T12:35:19.071Z,4.32
2023-01-18T12:38:05.657Z,3.22
2023-01-18T12:40:49.071Z,4.60
2023-01-18T12:43:26.490Z,3.03
2023-01-18T12:46:02.638Z,3.05
2023-01-18T12:48:49.703Z,5.95
2023-01-18T12:51:18.671Z,3.28
2023-01-18T12:53:45.962Z,4.07
2023-01-18T12:56:22.812Z,3.67
2023-01-18T12:58:56.324Z,3.40
2023-01-18T13:01:26.427Z,4.65
2023-01-18T13:03:59.077Z,5.15
2023-01-18T13:06:26.267Z,5.03
2023-01-18T13:08:54.987Z,4.05
2023-01-18T13:11:41.527Z,4.60
2023-01-18T13:14:10.822Z,4.22
2023-01-18T13:16:44.347Z,8.23
2023-01-18T13:19:24.912Z,4.20
2023-01-18T13:22:00.252Z,5.68
2023-01-18T13:24:30.286Z,7.63
2023-01-18T13:27:12.274Z,8.15
2023-01-18T13:29:39.815Z,6.88
2023-01-18T13:32:33.502Z,8.50
2023-01-18T13:35:21.139Z,8.00
2023-01-18T13:37:55.909Z,8.52
2023-01-18T13:40:24.332Z,3.60
2023-01-18T13:42:51.683Z,4.78
2023-01-18T13:45:23.501Z,4.70
2023-01-18T13:48:01.297Z,5.25
2023-01-18T13:50:28.956Z,5.57
2023-01-18T13:53:14.467Z,5.88
2023-01-18T13:55:59.974Z,4.22
2023-01-18T13:58:31.373Z,5.68
2023-01-18T14:01:03.436Z,5.13
2023-01-18T14:03:33.433Z,7.15
2023-01-18T14:06:11.391Z,5.35
2023-01-18T14:08:39.939Z,4.35
2023-01-18T14:11:11.625Z,5.68
2023-01-18T14:13:45.002Z,5.20
2023-01-18T14:16:23.097Z,4.63
2023-01-18T14:18:55.711Z,5.28
2023-01-18T14:21:40.960Z,6.82
2023-01-18T14:24:20.552Z,4.88
2023-01-18T14:26:47.758Z,6.13
2023-01-18T14:29:22.334Z,8.25
2023-01-18T14:34:30.023Z,11.77
2023-01-18T14:36:57.587Z,5.53
2023-01-18T14:39:24.985Z,9.52
2023-01-18T14:41:57.327Z,7.72
2023-01-18T14:44:26.985Z,4.78
2023-01-18T14:46:56.085Z,6.88
2023-01-18T14:49:31.009Z,8.52
2023-01-18T14:51:58.691Z,7.85
2023-01-18T14:54:25.995Z,6.70
2023-01-18T14:57:08.216Z,7.95
2023-01-18T14:59:35.856Z,8.63
2023-01-18T15:02:15.707Z,8.65
2023-01-18T15:04:47.287Z,5.22
2023-01-18T15:07:27.616Z,6.45
2023-01-18T15:09:54.813Z,8.25
2023-01-18T15:12:23.547Z,7.53
2023-01-18T15:14:51.335Z,6.82
2023-01-18T15:17:23.714Z,14.20
2023-01-18T15:19:55.847Z,7.68
2023-01-18T15:22:29.319Z,8.95
2023-01-18T15:24:57.743Z,8.32
2023-01-18T15:27:24.984Z,8.52
2023-01-18T15:29:53.913Z,11.32
2023-01-18T15:32:22.432Z,8.65
2023-01-18T15:34:50.419Z,9.20
2023-01-18T15:37:34.210Z,13.02
2023-01-18T15:40:02.240Z,5.93
2023-01-18T15:42:53.689Z,9.07
2023-01-18T15:45:25.769Z,10.52
2023-01-18T15:47:58.521Z,7.78
2023-01-18T15:50:31.160Z,8.52
2023-01-18T15:53:06.311Z,6.68
2023-01-18T15:55:41.099Z,10.05
2023-01-18T15:58:13.243Z,7.22
2023-01-18T16:00:44.515Z,8.88
2023-01-18T16:03:24.203Z,8.15
2023-01-18T16:06:16.972Z,10.27
2023-01-18T16:09:11.938Z,5.75
2023-01-18T16:11:54.244Z,9.20
2023-01-18T16:14:38.302Z,7.20
2023-01-18T16:17:16.397Z,5.80
2023-01-18T16:19:48.689Z,9.48
2023-01-18T16:22:20.195Z,8.45
2023-01-18T16:24:50.908Z,11.20
2023-01-18T16:27:23.090Z,7.53
2023-01-18T16:29:54.815Z,11.98
2023-01-18T16:32:24.793Z,15.38
2023-01-18T16:34:53.250Z,8.25
2023-01-18T16:37:20.724Z,8.77
2023-01-18T16:39:48.875Z,11.32
2023-01-18T16:42:18.209Z,7.53
2023-01-18T16:44:47.160Z,10.68
2023-01-18T16:47:15.646Z,10.77
2023-01-18T16:49:43.976Z,10.48
2023-01-18T16:52:12.857Z,10.23
2023-01-18T16:54:44.488Z,7.53
2023-01-18T16:57:22.451Z,10.40
2023-01-18T16:59:49.978Z,10.10
2023-01-18T17:02:17.386Z,9.20
2023-01-18T17:04:46.394Z,8.02
2023-01-18T17:07:13.719Z,10.75
2023-01-18T17:09:48.243Z,8.25
2023-01-18T17:12:16.311Z,8.52
2023-01-18T17:14:43.514Z,12.52
2023-01-18T17:17:10.967Z,10.75
2023-01-18T17:19:38.251Z,8.18
2023-01-18T17:22:06.387Z,11.73
2023-01-18T17:24:33.633Z,8.18
2023-01-18T17:27:01.330Z,7.60
2023-01-18T17:29:28.549Z,7.60
2023-01-18T17:31:55.749Z,7.97
2023-01-18T17:34:27.938Z,4.57
2023-01-18T17:36:59.785Z,5.25
2023-01-18T17:39:37.401Z,7.40
2023-01-18T17:42:22.274Z,6.63
2023-01-18T17:44:50.655Z,4.90
2023-01-18T17:47:17.870Z,6.85
2023-01-18T17:49:45.077Z,6.22
2023-01-18T17:52:12.272Z,7.50
2023-01-18T17:54:39.461Z,6.80
2023-01-18T17:57:06.658Z,8.07
2023-01-18T17:59:33.823Z,5.85
2023-01-18T18:02:01.065Z,9.60
2023-01-18T18:04:29.699Z,9.95
2023-01-18T18:06:58.479Z,9.00
2023-01-18T18:09:25.831Z,8.75
2023-01-18T18:11:53.188Z,9.80
2023-01-18T18:14:20.420Z,10.15
2023-01-18T18:16:47.690Z,7.60
2023-01-18T18:19:15.038Z,6.82
2023-01-18T18:21:42.836Z,11.05
2023-01-18T18:24:10.016Z,11.10
2023-01-18T18:26:37.248Z,12.55
2023-01-18T18:29:04.575Z,10.13
2023-01-18T18:31:31.825Z,8.65
2023-01-18T18:33:59.059Z,8.98
2023-01-18T18:36:27.292Z,10.98
2023-01-18T18:38:54.700Z,11.70
2023-01-18T18:41:21.904Z,11.27
2023-01-18T18:43:49.112Z,8.32
2023-01-18T18:46:16.405Z,9.63
2023-01-18T18:48:43.752Z,9.05
2023-01-18T18:51:10.980Z,10.95
2023-01-18T18:53:39.200Z,11.35
2023-01-18T18:56:10.084Z,11.60
2023-01-18T18:58:41.121Z,11.80
2023-01-18T19:01:17.197Z,10.55
2023-01-18T19:03:44.544Z,11.93
2023-01-18T19:06:11.804Z,10.63
2023-01-18T19:08:39.028Z,8.70
2023-01-18T19:11:06.280Z,9.20
2023-01-18T19:13:33.476Z,10.68
2023-01-18T19:16:00.740Z,9.10
2023-01-18T19:18:29.029Z,9.10
2023-01-18T19:20:56.373Z,12.00
2023-01-18T19:23:24.663Z,10.90
2023-01-18T19:25:51.943Z,12.10
2023-01-18T19:28:19.153Z,9.23
2023-01-18T19:30:46.380Z,9.85
2023-01-18T19:33:13.764Z,14.48
2023-01-18T19:35:44.733Z,11.35
2023-01-18T19:38:12.563Z,12.80
2023-01-18T19:40:40.008Z,15.70
2023-01-18T19:43:07.174Z,12.48
2023-01-18T19:45:36.023Z,13.98
2023-01-18T19:48:03.567Z,18.90
2023-01-18T19:50:31.027Z,12.70
2023-01-18T19:52:58.603Z,17.60
2023-01-18T19:55:25.995Z,14.77
2023-01-18T19:57:55.401Z,17.42
2023-01-18T20:00:22.640Z,16.05
2023-01-18T20:02:50.092Z,20.48
2023-01-18T20:05:17.388Z,15.88
2023-01-18T20:07:44.648Z,18.05
2023-01-18T20:10:11.844Z,17.80
2023-01-18T20:12:39.076Z,17.63
2023-01-18T20:15:06.644Z,16.65
2023-01-18T20:17:33.869Z,16.30
2023-01-18T20:20:01.083Z,18.50
2023-01-18T20:22:28.295Z,18.48
2023-01-18T20:24:55.530Z,19.55
2023-01-18T20:27:22.759Z,18.23
2023-01-18T20:29:49.915Z,19.83
2023-01-18T20:32:18.070Z,24.00
2023-01-18T20:34:46.790Z,18.58
2023-01-18T20:37:14.649Z,21.30
2023-01-18T20:39:41.871Z,17.98
2023-01-18T20:42:09.108Z,22.60
2023-01-18T20:44:36.636Z,21.10
2023-01-18T20:47:04.000Z,23.48
2023-01-18T20:49:39.075Z,18.88
2023-01-18T20:52:07.150Z,20.77
2023-01-18T20:54:36.252Z,19.17
2023-01-18T20:57:04.940Z,23.27
2023-01-18T20:59:32.158Z,22.75
2023-01-18T21:01:59.542Z,21.02
2023-01-18T21:04:26.924Z,24.30
2023-01-18T21:06:54.308Z,22.48
2023-01-18T21:09:21.483Z,21.92
2023-01-18T21:11:48.774Z,19.83
2023-01-18T21:14:16.075Z,22.95
2023-01-18T21:16:43.497Z,21.98
2023-01-18T21:19:10.740Z,21.27
2023-01-18T21:21:38.081Z,23.30
2023-01-18T21:24:05.532Z,21.35
2023-01-18T21:26:32.724Z,19.98
2023-01-18T21:28:59.941Z,26.02
2023-01-18T21:31:27.223Z,23.52
2023-01-18T21:33:54.634Z,20.50
2023-01-18T21:36:22.913Z,20.08
2023-01-18T21:38:50.360Z,20.42
2023-01-18T21:41:36.546Z,26.40
2023-01-18T21:44:22.219Z,30.95
2023-01-18T21:46:51.037Z,25.58
2023-01-18T21:49:57.596Z,25.15
2023-01-18T21:52:42.656Z,31.35
2023-01-18T21:55:09.911Z,27.70
2023-01-18T21:57:39.096Z,29.65
2023-01-18T22:00:07.132Z,30.20
2023-01-18T22:02:37.058Z,30.42
2023-01-18T22:05:04.553Z,28.55
2023-01-18T22:07:33.794Z,27.95
2023-01-18T22:10:06.566Z,28.38
2023-01-18T22:12:35.240Z,27.40
2023-01-18T22:15:04.266Z,31.05
2023-01-18T22:17:31.619Z,30.83
2023-01-18T22:19:59.732Z,28.52
2023-01-18T22:22:27.080Z,32.05
2023-01-18T22:24:54.311Z,33.20
2023-01-18T22:27:21.577Z,33.65
2023-01-18T22:29:48.838Z,32.42
2023-01-18T22:32:16.334Z,35.75
2023-01-18T22:34:43.692Z,32.75
2023-01-18T22:37:10.928Z,34.05
2023-01-18T22:39:38.124Z,35.22
2023-01-18T22:42:05.353Z,37.58
2023-01-18T22:44:32.855Z,32.92
2023-01-18T22:47:00.206Z,33.78
2023-01-18T22:49:27.407Z,40.35
2023-01-18T22:51:54.592Z,37.67
2023-01-18T22:54:22.836Z,41.25
2023-01-18T22:56:50.070Z,37.03
2023-01-18T22:59:17.495Z,35.92
2023-01-18T23:01:44.889Z,37.38
2023-01-18T23:04:12.194Z,45.92
2023-01-18T23:06:45.589Z,41.20
2023-01-18T23:09:14.300Z,43.45
2023-01-18T23:11:41.523Z,44.30
2023-01-18T23:14:27.503Z,39.13
2023-01-18T23:17:13.269Z,40.95
2023-01-18T23:19:40.477Z,40.88
2023-01-18T23:22:07.772Z,42.80
2023-01-18T23:24:35.864Z,40.08
2023-01-18T23:27:07.056Z,37.17
2023-01-18T23:29:34.277Z,30.17
2023-01-18T23:32:01.512Z,32.80
2023-01-18T23:34:28.785Z,33.20
2023-01-18T23:36:55.986Z,27.63
2023-01-18T23:39:41.566Z,30.60
2023-01-18T23:42:27.523Z,29.98
2023-01-18T23:45:13.134Z,33.55
2023-01-18T23:47:59.100Z,32.42
2023-01-18T23:50:45.340Z,33.60
2023-01-18T23:53:31.455Z,36.00
2023-01-18T23:55:59.037Z,31.33
2023-01-18T23:58:26.323Z,35.20
